Aérodrome :
LOGIN :

S'inscrire | Disclaimer

   EN    FR    IT 

 










Légende :    VFR   VFR Marginal   IFR   IFR Intensif   IFR Très Intensif
Visi : 
Plafond : 
>= 8 km
>= 3000ft
5 à 8 km
1000 à 3000 ft
1500m à 5 km
500 à 1000 ft
800 à 1500m
200 à 500 ft
< 800m
< 200 ft
Symboles :   Orages  Brouillard  Fortes neiges  Fortes précipitations  Vent > 20 kt
SIGMETs :   Divers  Orages  Givrage  Turbulence  Onde Orograph.  Cendres Volcan.






- Altitude de l'aérodrome : 245 ft
- Code IATA : BIQ


LFBZ - Biarritz

DERNIER METAR :
  • 180430Z AUTO 25006KT 220V300 9999 BKN009/// BKN013/// BKN027/// 19/17 Q1011 NOSIG

METARs EXPIRÉS :
  • 180400Z AUTO 27007KT 9999 OVC027/// 19/17 Q1011 TEMPO BKN006
  • 180330Z AUTO 27009KT 9999 SCT011/// OVC025/// 19/17 Q1011 TEMPO BKN006
  • 180300Z AUTO 27009KT 9999 BKN012/// OVC028/// 19/17 Q1011 TEMPO BKN006
  • 180230Z AUTO 28009KT 9999 FEW012/// OVC028/// 19/17 Q1011 TEMPO BKN006
  • 180200Z AUTO 27010KT 230V290 9999 FEW013/// OVC028/// 19/17 Q1011 TEMPO BKN006
  • 180130Z AUTO 28011KT 9999 FEW009/// BKN030/// 19/17 Q1011 TEMPO BKN006
  • 180100Z AUTO 27011KT 230V290 9999 BKN008/// BKN014/// 19/18 Q1011 NOSIG
  • 180030Z AUTO 27011KT 230V300 9999 OVC008/// 19/18 Q1011 NOSIG
  • 180000Z AUTO 26013KT 9999 BKN006/// 20/19 Q1010 NOSIG
  • 172330Z AUTO 28014KT 240V300 9999 NCD 20/18 Q1010 TEMPO BKN005

TAF AMD TAF LFBZ
Valide du 18 à 00h jusqu'au 19 à 00h UTC


180017Z 1800/1824 27013KT 9999 SCT010
TEMPO 1800/1808 BKN006
BECMG 1810/1812 35008KT
TEMPO 1814/1822 SCT050CB
PROB30
TEMPO 1815/1818 VRB15G30KT 2000 TSRAGR BKN010 BKN050CB



MET'MAP, la Météo Aéronautique d'un coup d'oeil ! - Copyright ORBIFLY Décembre 2007 - Disclaimer

ORBIFLY MET'MAP TEAM :

Programmation & Développement : Alexandra Zaïnal
Sur une idée originale de : Baudouin d'Aumeries
Soutien technique & logistique : Manuel Goepfert
Assistance : Marc-Olivier Méhu




SOURCES & CREDITS :

   NOAA